Time;durP1;ratioP1;P1;durP2;ratioP2;P2;SDS_P1;SDS_P2;PMS_P1;PMS_P2;Temp;Humidity;BMP_temperature;BMP_pressure;BME280_temperature;BME280_humidity;BME280_pressure;Samples;Min_cycle;Max_cycle;Signal;HPM_P1;HPM_P2
2022/12/05 00:00:28;;;;;;;31.37;15.70;;;3.60;40.30;;;;;;4984163;28;20457;-71
2022/12/05 00:02:55;;;;;;;21.73;13.33;;;3.60;40.30;;;;;;4985458;28;20464;-70
2022/12/05 00:05:23;;;;;;;24.13;13.60;;;3.70;40.30;;;;;;4985583;28;20487;-71
2022/12/05 00:07:50;;;;;;;27.23;15.03;;;3.70;40.00;;;;;;4986453;28;20584;-70
2022/12/05 00:10:16;;;;;;;28.43;14.47;;;3.70;39.90;;;;;;4986069;28;20472;-71
2022/12/05 00:12:43;;;;;;;25.73;14.20;;;3.60;39.60;;;;;;4986646;28;20484;-70
2022/12/05 00:15:11;;;;;;;24.67;13.13;;;3.60;39.70;;;;;;4994502;23;20505;-76
2022/12/05 00:17:40;;;;;;;25.17;13.97;;;3.60;39.70;;;;;;4996378;28;20875;-75
2022/12/05 00:20:08;;;;;;;24.17;12.00;;;3.60;39.90;;;;;;5004197;28;20468;-74
2022/12/05 00:22:37;;;;;;;20.57;11.17;;;3.60;40.10;;;;;;4999107;28;20466;-76
2022/12/05 00:25:06;;;;;;;22.63;12.43;;;3.60;39.60;;;;;;4999497;28;20490;-74
2022/12/05 00:27:33;;;;;;;23.10;11.90;;;3.50;39.60;;;;;;5005891;28;20487;-74
2022/12/05 00:30:00;;;;;;;22.57;14.43;;;3.50;39.60;;;;;;5004938;28;20460;-75
2022/12/05 00:32:29;;;;;;;28.00;13.90;;;3.50;39.80;;;;;;4992501;28;20483;-75
2022/12/05 00:34:56;;;;;;;22.23;12.03;;;3.40;40.00;;;;;;5003797;28;20484;-75
2022/12/05 00:37:23;;;;;;;22.27;12.30;;;3.40;40.20;;;;;;5001741;28;20463;-75
2022/12/05 00:39:51;;;;;;;25.77;13.13;;;3.40;40.30;;;;;;5002935;28;20463;-75
2022/12/05 00:42:18;;;;;;;24.57;12.83;;;3.50;40.20;;;;;;4999613;28;21007;-75
2022/12/05 00:44:44;;;;;;;22.73;12.60;;;3.40;40.20;;;;;;5004859;28;20482;-75
2022/12/05 00:47:11;;;;;;;23.73;12.80;;;3.50;40.20;;;;;;4999850;28;20464;-75
2022/12/05 00:49:38;;;;;;;23.33;11.40;;;3.50;40.20;;;;;;5005947;28;20495;-75
2022/12/05 00:52:05;;;;;;;22.30;11.57;;;3.50;39.90;;;;;;5000119;28;20455;-76
2022/12/05 00:54:32;;;;;;;27.53;10.97;;;3.50;39.90;;;;;;5004026;28;20490;-76
2022/12/05 00:57:00;;;;;;;21.97;11.90;;;3.50;40.10;;;;;;4995180;28;20456;-75
2022/12/05 00:59:27;;;;;;;23.77;12.50;;;3.50;40.20;;;;;;5003978;28;20460;-76
2022/12/05 01:01:54;;;;;;;19.03;11.30;;;3.50;40.20;;;;;;4999489;28;20484;-75
2022/12/05 01:04:22;;;;;;;23.60;11.70;;;3.50;39.60;;;;;;5005781;28;20459;-76
2022/12/05 01:06:51;;;;;;;21.63;10.17;;;3.50;39.60;;;;;;5005707;28;20543;-76
2022/12/05 01:09:19;;;;;;;22.40;11.03;;;3.50;39.70;;;;;;4998635;28;21175;-76
2022/12/05 01:11:47;;;;;;;23.40;10.50;;;3.40;39.80;;;;;;5002779;28;21018;-75
2022/12/05 01:14:17;;;;;;;22.50;12.20;;;3.40;39.80;;;;;;4999065;28;20486;-75
2022/12/05 01:16:45;;;;;;;26.63;13.00;;;3.40;40.10;;;;;;5002047;28;20480;-75
2022/12/05 01:19:15;;;;;;;26.13;12.87;;;3.40;40.00;;;;;;5007202;28;20469;-74
2022/12/05 01:21:43;;;;;;;26.70;12.93;;;3.40;40.10;;;;;;5008937;28;20459;-75
2022/12/05 01:24:11;;;;;;;20.33;10.87;;;3.40;40.00;;;;;;5006517;28;20460;-76
2022/12/05 01:26:38;;;;;;;29.03;12.93;;;3.40;40.10;;;;;;5006771;28;20506;-75
2022/12/05 01:29:04;;;;;;;24.20;11.63;;;3.40;40.40;;;;;;5008152;28;20503;-77
2022/12/05 01:31:34;;;;;;;23.63;11.67;;;3.40;40.20;;;;;;5005755;28;20867;-75
2022/12/05 01:34:03;;;;;;;17.67;10.93;;;3.40;40.20;;;;;;5006264;28;20488;-76
2022/12/05 01:36:30;;;;;;;20.70;10.07;;;3.40;40.50;;;;;;5007845;28;20510;-74
2022/12/05 01:38:58;;;;;;;22.90;10.80;;;3.40;40.70;;;;;;5007117;28;20749;-76
2022/12/05 01:41:27;;;;;;;23.27;11.30;;;3.40;40.70;;;;;;5007591;28;20959;-74
2022/12/05 01:44:00;;;;;;;23.53;11.83;;;3.30;40.90;;;;;;5006100;28;20455;-74
2022/12/05 01:46:29;;;;;;;20.73;11.47;;;3.40;40.80;;;;;;5009206;28;20476;-74
2022/12/05 01:49:01;;;;;;;22.53;11.40;;;3.30;40.80;;;;;;5004788;28;20472;-75
2022/12/05 01:51:29;;;;;;;26.40;11.63;;;3.40;41.10;;;;;;5004541;28;20474;-74
2022/12/05 01:53:56;;;;;;;22.80;13.37;;;3.30;40.90;;;;;;5007579;28;20503;-75
2022/12/05 01:56:23;;;;;;;23.00;11.57;;;3.30;41.10;;;;;;5007566;28;20506;-74
2022/12/05 01:58:50;;;;;;;23.83;10.47;;;3.30;41.00;;;;;;5005932;28;20468;-74
2022/12/05 02:01:18;;;;;;;18.50;10.10;;;3.40;41.20;;;;;;5000844;28;20485;-74
2022/12/05 02:03:48;;;;;;;19.03;10.20;;;3.40;40.90;;;;;;5000663;28;20509;-74
2022/12/05 02:06:17;;;;;;;22.37;11.37;;;3.40;40.70;;;;;;5003593;28;20475;-75
2022/12/05 02:08:45;;;;;;;19.50;9.70;;;3.40;40.30;;;;;;5002458;28;20459;-74
2022/12/05 02:11:12;;;;;;;19.33;10.83;;;3.40;40.50;;;;;;5006922;28;20460;-75
2022/12/05 02:14:12;;;;;;;19.20;10.23;;;3.40;40.50;;;;;;5002788;28;20527;-75
2022/12/05 02:16:48;;;;;;;21.13;10.80;;;3.40;40.70;;;;;;4991288;28;20485;-75
2022/12/05 02:19:47;;;;;;;17.93;8.83;;;3.40;40.70;;;;;;5003242;28;20461;-75
2022/12/05 02:22:46;;;;;;;19.40;10.37;;;3.40;41.00;;;;;;5004662;28;20500;-76
2022/12/05 02:25:22;;;;;;;24.70;11.50;;;3.40;41.10;;;;;;5002972;28;20489;-76
2022/12/05 02:28:17;;;;;;;21.53;11.40;;;3.40;40.80;;;;;;5008915;28;20951;-76
2022/12/05 02:30:53;;;;;;;23.20;10.97;;;3.40;41.20;;;;;;5004747;28;20478;-75
2022/12/05 02:33:23;;;;;;;24.43;11.87;;;3.30;41.40;;;;;;5002450;28;20479;-75
2022/12/05 02:35:58;;;;;;;23.20;11.20;;;3.30;41.50;;;;;;5004238;28;20484;-75
2022/12/05 02:38:30;;;;;;;23.33;11.10;;;3.30;41.90;;;;;;5007122;28;20470;-75
2022/12/05 02:41:04;;;;;;;24.77;11.70;;;3.30;42.00;;;;;;5007925;28;21011;-76
2022/12/05 02:43:37;;;;;;;22.57;11.43;;;3.30;42.10;;;;;;5005550;28;20466;-75
2022/12/05 02:46:10;;;;;;;25.27;12.33;;;3.30;42.20;;;;;;5006265;28;20498;-75
2022/12/05 02:48:38;;;;;;;26.30;12.27;;;3.30;42.80;;;;;;5008138;28;20482;-75
2022/12/05 02:51:09;;;;;;;24.50;11.30;;;3.30;41.90;;;;;;5004157;28;20466;-76
2022/12/05 02:53:37;;;;;;;22.70;11.40;;;3.30;42.00;;;;;;5003742;28;20476;-76
2022/12/05 02:56:05;;;;;;;24.87;12.97;;;3.30;42.10;;;;;;5006488;28;20480;-76
2022/12/05 02:58:36;;;;;;;25.47;13.20;;;3.40;42.10;;;;;;5007547;28;20462;-75
2022/12/05 03:01:03;;;;;;;27.80;12.33;;;3.40;41.90;;;;;;5000594;28;20502;-75
2022/12/05 03:03:33;;;;;;;25.53;12.93;;;3.40;41.90;;;;;;5004936;28;20460;-75
2022/12/05 03:06:05;;;;;;;26.03;12.07;;;3.40;42.00;;;;;;5005039;28;20486;-75
2022/12/05 03:08:37;;;;;;;28.00;13.80;;;3.40;42.10;;;;;;4998601;28;20469;-74
2022/12/05 03:11:04;;;;;;;27.37;13.30;;;3.40;42.20;;;;;;5006519;28;20452;-75
2022/12/05 03:13:36;;;;;;;31.60;13.73;;;3.40;42.40;;;;;;4999345;28;20490;-75
2022/12/05 03:16:08;;;;;;;26.37;13.53;;;3.40;42.20;;;;;;5003775;28;21011;-75
2022/12/05 03:18:40;;;;;;;28.93;13.70;;;3.40;42.20;;;;;;4999834;28;20468;-75
2022/12/05 03:21:15;;;;;;;29.07;15.77;;;3.40;42.30;;;;;;5006836;28;20547;-75
2022/12/05 03:23:46;;;;;;;35.00;15.80;;;3.50;42.40;;;;;;5005347;28;20454;-75
2022/12/05 03:26:24;;;;;;;29.03;14.07;;;3.50;42.40;;;;;;4999452;28;20476;-76
2022/12/05 03:29:01;;;;;;;35.03;16.00;;;3.50;42.40;;;;;;4999639;28;20472;-75
2022/12/05 03:31:37;;;;;;;27.63;13.63;;;3.50;43.20;;;;;;4995861;28;20487;-75
2022/12/05 03:34:08;;;;;;;34.33;14.37;;;3.60;42.40;;;;;;5003120;28;20488;-75
2022/12/05 03:36:39;;;;;;;30.03;14.53;;;3.50;42.40;;;;;;5001827;28;20582;-76
2022/12/05 03:39:10;;;;;;;38.67;14.53;;;3.50;42.70;;;;;;5006242;28;21085;-75
2022/12/05 03:41:43;;;;;;;32.93;15.57;;;3.60;42.80;;;;;;5006268;28;20454;-76
2022/12/05 03:44:14;;;;;;;27.00;12.53;;;3.60;42.80;;;;;;5002526;28;20460;-76
2022/12/05 03:46:46;;;;;;;36.93;17.50;;;3.60;42.80;;;;;;4995073;28;20510;-76
2022/12/05 03:49:20;;;;;;;32.60;14.70;;;3.60;42.50;;;;;;5005922;28;20464;-76
2022/12/05 03:51:53;;;;;;;32.50;13.93;;;3.60;43.00;;;;;;4998792;28;20482;-75
2022/12/05 03:54:24;;;;;;;29.50;13.90;;;3.60;42.40;;;;;;5006492;28;21054;-75
2022/12/05 03:56:58;;;;;;;29.80;14.30;;;3.60;42.40;;;;;;5001382;28;20499;-75
2022/12/05 03:59:30;;;;;;;34.83;16.73;;;3.60;42.50;;;;;;5002926;28;20460;-76
2022/12/05 04:02:00;;;;;;;32.60;15.17;;;3.60;42.60;;;;;;4996783;28;20563;-75
2022/12/05 04:04:33;;;;;;;28.90;14.57;;;3.60;42.70;;;;;;5002474;28;21164;-76
2022/12/05 04:07:04;;;;;;;34.67;15.50;;;3.60;42.80;;;;;;5006306;28;20971;-76
2022/12/05 04:09:36;;;;;;;30.47;15.07;;;3.70;42.70;;;;;;5002514;28;20727;-76
2022/12/05 04:12:07;;;;;;;30.80;14.30;;;3.60;42.70;;;;;;5003491;28;20989;-77
2022/12/05 04:14:41;;;;;;;28.53;12.90;;;3.60;42.80;;;;;;5003312;28;20885;-77
2022/12/05 04:17:12;;;;;;;34.67;16.03;;;3.60;42.80;;;;;;4997810;28;20459;-77
2022/12/05 04:22:29;;;;;;;32.90;14.43;;;3.60;42.80;;;;;;5001490;28;20892;-76
2022/12/05 04:27:50;;;;;;;31.40;14.73;;;3.70;43.10;;;;;;4996541;28;20447;-75
2022/12/05 04:30:20;;;;;;;27.23;15.00;;;3.70;42.90;;;;;;5001858;28;20478;-75
2022/12/05 04:32:52;;;;;;;31.90;14.73;;;3.70;42.90;;;;;;5001002;28;20868;-75
2022/12/05 04:35:25;;;;;;;35.73;16.23;;;3.70;42.80;;;;;;5000951;28;20494;-74
2022/12/05 04:38:00;;;;;;;28.83;15.33;;;3.70;43.20;;;;;;4998217;28;20829;-74
2022/12/05 04:40:34;;;;;;;33.93;15.47;;;3.70;43.30;;;;;;4996660;28;20487;-74
2022/12/05 04:43:04;;;;;;;32.97;15.20;;;3.70;43.30;;;;;;4997332;28;20471;-74
2022/12/05 04:45:33;;;;;;;35.30;18.07;;;3.70;43.30;;;;;;4994495;28;20479;-74
2022/12/05 04:48:07;;;;;;;36.13;16.60;;;3.70;43.30;;;;;;4998003;28;20452;-73
2022/12/05 04:50:39;;;;;;;35.93;16.63;;;3.70;43.20;;;;;;5003536;28;20464;-73
2022/12/05 04:53:08;;;;;;;29.87;14.43;;;3.70;43.20;;;;;;5001848;28;20472;-72
2022/12/05 04:55:39;;;;;;;34.30;16.87;;;3.80;43.20;;;;;;5005992;28;20492;-73
2022/12/05 04:58:09;;;;;;;32.30;16.13;;;3.80;43.00;;;;;;5005834;28;20460;-72
2022/12/05 05:00:43;;;;;;;30.33;15.90;;;3.80;43.10;;;;;;5002419;28;21030;-72
2022/12/05 05:03:16;;;;;;;31.47;15.43;;;3.90;43.20;;;;;;5007176;28;20906;-73
2022/12/05 05:05:48;;;;;;;34.17;17.67;;;3.90;43.10;;;;;;5002449;28;20483;-72
2022/12/05 05:08:19;;;;;;;31.07;16.20;;;3.90;43.20;;;;;;5002919;28;20518;-73
2022/12/05 05:10:55;;;;;;;34.57;17.30;;;3.90;43.40;;;;;;5004929;28;20858;-73
2022/12/05 05:13:22;;;;;;;26.60;13.47;;;3.90;43.10;;;;;;5007156;28;20463;-73
2022/12/05 05:15:49;;;;;;;32.90;15.83;;;3.90;43.00;;;;;;4992953;28;20510;-73
2022/12/05 05:18:15;;;;;;;33.17;16.43;;;3.90;42.90;;;;;;5004513;28;20459;-73
2022/12/05 05:20:42;;;;;;;33.50;17.37;;;3.90;43.10;;;;;;5002742;28;20460;-76
2022/12/05 05:23:10;;;;;;;31.33;16.73;;;3.90;43.10;;;;;;5004732;28;20467;-73
2022/12/05 05:25:37;;;;;;;29.70;17.00;;;4.00;43.10;;;;;;5004490;28;20471;-73
2022/12/05 05:28:04;;;;;;;40.13;17.60;;;4.00;43.20;;;;;;5005323;28;20457;-73
2022/12/05 05:30:31;;;;;;;42.33;19.20;;;4.00;43.10;;;;;;5006091;28;20456;-73
2022/12/05 05:32:59;;;;;;;44.13;20.23;;;4.00;43.00;;;;;;5006959;28;20456;-73
2022/12/05 05:35:26;;;;;;;38.30;17.10;;;4.00;43.80;;;;;;4997669;28;20491;-73
2022/12/05 05:37:53;;;;;;;34.23;18.83;;;4.00;43.00;;;;;;5005925;28;20920;-73
2022/12/05 05:40:21;;;;;;;37.03;17.30;;;4.10;43.00;;;;;;4999804;28;20986;-73
2022/12/05 05:42:49;;;;;;;35.90;17.63;;;4.10;42.90;;;;;;4999134;28;20968;-73
2022/12/05 05:45:16;;;;;;;34.10;17.80;;;4.10;42.90;;;;;;5009539;28;20476;-72
2022/12/05 05:47:43;;;;;;;30.70;16.77;;;4.10;42.80;;;;;;5003208;28;20459;-72
2022/12/05 05:50:11;;;;;;;28.60;15.60;;;4.20;42.60;;;;;;5001322;28;20463;-72
2022/12/05 05:52:38;;;;;;;22.43;12.37;;;4.20;42.40;;;;;;5005510;28;20463;-72
2022/12/05 05:55:07;;;;;;;22.43;12.47;;;4.20;42.30;;;;;;5007148;28;20814;-73
2022/12/05 05:57:36;;;;;;;24.27;12.77;;;4.20;42.30;;;;;;5003503;28;20464;-72
2022/12/05 06:00:05;;;;;;;24.57;13.47;;;4.20;42.30;;;;;;5000981;28;20470;-73
2022/12/05 06:02:33;;;;;;;25.83;14.00;;;4.20;42.50;;;;;;4998867;28;20472;-73
2022/12/05 06:04:59;;;;;;;24.10;13.77;;;4.20;42.50;;;;;;5008064;28;20511;-73
2022/12/05 06:07:26;;;;;;;23.97;13.70;;;4.20;42.60;;;;;;5009401;28;20470;-73
2022/12/05 06:09:53;;;;;;;22.70;12.43;;;4.20;42.80;;;;;;5003051;28;20583;-73
2022/12/05 06:12:20;;;;;;;25.80;13.60;;;4.30;42.90;;;;;;5005903;28;20457;-73
2022/12/05 06:14:49;;;;;;;25.03;13.73;;;4.30;43.10;;;;;;4999259;28;20492;-73
2022/12/05 06:17:16;;;;;;;23.97;13.27;;;4.30;43.00;;;;;;5000909;28;20464;-73
2022/12/05 06:19:42;;;;;;;25.20;13.80;;;4.30;42.80;;;;;;5020974;23;20452;-67
2022/12/05 06:22:09;;;;;;;26.33;13.80;;;4.30;42.80;;;;;;4987617;28;20468;-67
2022/12/05 06:24:36;;;;;;;26.27;15.07;;;4.30;42.70;;;;;;4989720;28;20464;-66
2022/12/05 06:27:03;;;;;;;25.17;14.53;;;4.30;42.70;;;;;;4989025;28;20467;-65
2022/12/05 06:29:30;;;;;;;27.17;14.43;;;4.40;42.50;;;;;;4990137;28;20468;-67
2022/12/05 06:31:58;;;;;;;26.67;14.63;;;4.40;42.60;;;;;;4986328;28;20476;-65
2022/12/05 06:34:25;;;;;;;29.27;15.37;;;4.40;42.50;;;;;;4980102;28;20495;-66
2022/12/05 06:36:51;;;;;;;30.00;14.73;;;4.50;42.20;;;;;;4984475;28;20466;-66
2022/12/05 06:39:18;;;;;;;26.97;14.43;;;4.50;42.40;;;;;;4977020;28;21236;-66
2022/12/05 06:41:45;;;;;;;28.67;14.67;;;4.50;42.30;;;;;;4985478;28;20477;-66
2022/12/05 06:44:12;;;;;;;28.60;14.80;;;4.50;42.50;;;;;;4983415;28;20460;-66
2022/12/05 06:46:38;;;;;;;26.80;15.73;;;4.50;42.70;;;;;;4986048;28;20461;-66
2022/12/05 06:49:07;;;;;;;27.40;13.33;;;4.50;42.60;;;;;;4976162;28;20841;-67
2022/12/05 06:51:33;;;;;;;24.73;14.23;;;4.60;42.30;;;;;;4984214;28;20487;-69
2022/12/05 06:54:00;;;;;;;29.80;17.77;;;4.50;42.40;;;;;;4982461;28;20483;-67
2022/12/05 06:56:27;;;;;;;29.40;15.70;;;4.50;42.50;;;;;;4984835;28;20461;-67
2022/12/05 06:58:55;;;;;;;25.90;14.47;;;4.60;42.30;;;;;;4981977;28;20472;-67
2022/12/05 07:01:37;;;;;;;32.67;15.43;;;4.60;42.70;;;;;;4987269;28;20469;-67
2022/12/05 07:04:05;;;;;;;32.10;17.57;;;4.60;42.40;;;;;;4978169;28;20476;-66
2022/12/05 07:06:33;;;;;;;25.03;15.60;;;4.60;42.30;;;;;;4980863;28;21127;-67
2022/12/05 07:09:00;;;;;;;26.33;14.77;;;4.60;42.40;;;;;;4987824;28;20457;-68
2022/12/05 07:11:27;;;;;;;32.93;16.40;;;4.70;42.20;;;;;;4982335;28;20493;-67
2022/12/05 07:13:54;;;;;;;28.47;14.67;;;4.60;42.00;;;;;;4982808;28;20932;-66
2022/12/05 07:16:20;;;;;;;28.23;16.43;;;4.60;42.10;;;;;;4983481;28;20599;-67
2022/12/05 07:18:47;;;;;;;30.53;16.27;;;4.70;42.40;;;;;;4991358;28;20462;-67
2022/12/05 07:21:16;;;;;;;29.93;16.63;;;4.70;42.30;;;;;;4982545;28;20895;-66
2022/12/05 07:23:45;;;;;;;28.30;14.97;;;4.70;42.10;;;;;;4986572;28;20472;-66
2022/12/05 07:26:15;;;;;;;26.00;15.13;;;4.70;42.00;;;;;;4985551;28;20453;-66
2022/12/05 07:28:42;;;;;;;31.43;15.50;;;4.70;42.10;;;;;;4987022;28;20465;-66
2022/12/05 07:31:11;;;;;;;28.07;15.70;;;4.70;42.10;;;;;;4989174;28;20468;-66
2022/12/05 07:33:38;;;;;;;29.77;15.60;;;4.70;42.10;;;;;;4988054;28;20453;-66
2022/12/05 07:36:08;;;;;;;27.80;14.53;;;4.80;42.20;;;;;;4992645;28;20475;-66
2022/12/05 07:38:35;;;;;;;25.37;15.60;;;4.70;42.30;;;;;;4984427;28;20834;-67
2022/12/05 07:41:06;;;;;;;26.10;14.80;;;4.80;42.20;;;;;;4982893;28;20485;-67
2022/12/05 07:43:33;;;;;;;27.90;15.17;;;4.70;42.30;;;;;;4985607;28;20468;-67
2022/12/05 07:46:03;;;;;;;26.00;14.63;;;4.80;42.30;;;;;;4982072;28;20462;-68
2022/12/05 07:48:29;;;;;;;28.23;15.03;;;4.80;42.30;;;;;;4986664;28;20468;-67
2022/12/05 07:51:00;;;;;;;29.00;15.93;;;4.80;42.10;;;;;;4987740;28;20487;-67
2022/12/05 07:53:27;;;;;;;28.67;15.20;;;4.80;42.10;;;;;;4989004;28;20515;-67
2022/12/05 07:55:54;;;;;;;27.57;15.30;;;4.90;42.00;;;;;;4984230;28;20481;-67
2022/12/05 07:58:22;;;;;;;28.37;14.60;;;5.00;41.70;;;;;;4988396;28;20457;-67
2022/12/05 08:00:49;;;;;;;25.93;16.87;;;5.00;41.60;;;;;;4982817;28;20481;-67
2022/12/05 08:03:16;;;;;;;26.90;14.70;;;5.10;41.60;;;;;;4985673;28;20464;-67
2022/12/05 08:05:43;;;;;;;28.33;16.13;;;5.10;41.20;;;;;;4983341;28;20948;-67
2022/12/05 08:08:10;;;;;;;23.30;13.87;;;5.20;40.90;;;;;;4981690;28;20948;-68
2022/12/05 08:10:37;;;;;;;23.77;14.40;;;5.20;40.70;;;;;;4981921;28;21014;-67
2022/12/05 08:13:03;;;;;;;27.23;16.17;;;5.30;40.60;;;;;;4979419;28;20552;-67
2022/12/05 08:15:34;;;;;;;27.33;14.60;;;5.30;40.30;;;;;;4984842;28;20712;-67
2022/12/05 08:18:01;;;;;;;22.67;14.23;;;5.40;40.20;;;;;;4988029;28;20465;-68
2022/12/05 08:20:29;;;;;;;34.10;15.60;;;5.40;39.90;;;;;;4982325;28;20496;-68
2022/12/05 08:22:56;;;;;;;25.20;14.43;;;5.40;39.80;;;;;;4985435;28;20860;-67
2022/12/05 08:25:22;;;;;;;27.43;15.93;;;5.40;39.90;;;;;;4984381;28;20465;-68
2022/12/05 08:27:49;;;;;;;21.80;13.20;;;5.40;40.30;;;;;;4988816;28;20509;-66
2022/12/05 08:30:16;;;;;;;23.83;13.67;;;5.40;40.20;;;;;;4982739;28;20487;-66
2022/12/05 08:32:44;;;;;;;23.37;14.17;;;5.40;40.20;;;;;;4987426;28;20665;-66
2022/12/05 08:35:11;;;;;;;26.63;15.40;;;5.40;40.30;;;;;;4988232;28;21030;-67
2022/12/05 08:37:38;;;;;;;24.80;15.17;;;5.40;40.10;;;;;;4981466;28;20461;-67
2022/12/05 08:40:06;;;;;;;24.63;14.60;;;5.40;40.20;;;;;;4984982;28;20484;-66
2022/12/05 08:42:33;;;;;;;26.50;14.00;;;5.50;40.70;;;;;;4984318;28;20479;-68
2022/12/05 08:44:59;;;;;;;25.40;14.03;;;5.50;40.10;;;;;;4983542;28;20458;-65
2022/12/05 08:47:27;;;;;;;24.90;14.30;;;5.50;40.10;;;;;;4984189;28;20484;-66
2022/12/05 08:49:55;;;;;;;22.43;14.10;;;5.50;40.20;;;;;;4984619;28;20472;-65
2022/12/05 08:52:21;;;;;;;24.60;15.00;;;5.50;40.20;;;;;;4980706;28;20469;-66
2022/12/05 08:54:48;;;;;;;23.13;13.77;;;5.50;39.90;;;;;;4985626;28;20480;-66
2022/12/05 08:57:15;;;;;;;23.60;14.97;;;5.50;40.00;;;;;;4986731;28;20465;-65
2022/12/05 08:59:42;;;;;;;23.23;13.80;;;5.50;40.10;;;;;;4986384;28;20487;-68
2022/12/05 09:02:09;;;;;;;22.63;13.40;;;5.50;40.20;;;;;;4991929;28;20491;-66
2022/12/05 09:04:36;;;;;;;24.57;14.10;;;5.50;40.20;;;;;;4983556;28;20468;-66
2022/12/05 09:07:05;;;;;;;25.53;14.60;;;5.60;40.20;;;;;;4979682;28;20552;-66
2022/12/05 09:09:32;;;;;;;23.23;13.30;;;5.60;40.00;;;;;;4987077;28;20552;-66
2022/12/05 09:11:59;;;;;;;23.47;14.87;;;5.60;39.90;;;;;;4985295;28;21016;-67
2022/12/05 09:14:31;;;;;;;24.30;11.73;;;5.60;40.00;;;;;;4987199;28;20488;-67
2022/12/05 09:16:58;;;;;;;24.00;14.23;;;5.60;40.10;;;;;;4988397;28;20619;-66
2022/12/05 09:19:26;;;;;;;23.00;13.17;;;5.60;40.20;;;;;;4987111;28;21152;-66
2022/12/05 09:21:53;;;;;;;28.37;15.33;;;5.60;40.20;;;;;;4983352;28;20552;-65
2022/12/05 09:24:21;;;;;;;28.50;14.67;;;5.60;40.20;;;;;;4986123;28;20456;-68
2022/12/05 09:26:48;;;;;;;25.43;15.40;;;5.60;40.00;;;;;;4975921;28;20988;-66
2022/12/05 09:29:15;;;;;;;21.17;13.80;;;5.60;40.10;;;;;;4987604;28;20453;-67
2022/12/05 09:31:42;;;;;;;24.70;15.40;;;5.60;40.10;;;;;;4985416;28;21003;-67
2022/12/05 09:34:09;;;;;;;24.77;15.13;;;5.70;40.40;;;;;;4989095;28;20472;-66
2022/12/05 09:36:36;;;;;;;25.17;14.70;;;5.70;40.30;;;;;;4984082;28;20473;-67
2022/12/05 09:39:05;;;;;;;23.10;13.73;;;5.70;40.30;;;;;;4987133;28;20456;-67
2022/12/05 09:42:11;;;;;;;21.67;13.20;;;5.80;40.30;;;;;;4993499;28;20480;-66
2022/12/05 09:44:45;;;;;;;21.03;13.60;;;5.90;40.20;;;;;;4970973;28;20464;-65
2022/12/05 09:47:20;;;;;;;26.17;14.60;;;5.90;40.10;;;;;;4982601;28;20465;-65
2022/12/05 09:49:51;;;;;;;22.30;13.00;;;5.90;40.10;;;;;;4991245;28;21185;-66
2022/12/05 09:52:25;;;;;;;22.60;13.83;;;6.00;40.00;;;;;;4985483;28;20549;-66
2022/12/05 09:54:52;;;;;;;25.60;15.27;;;6.00;40.00;;;;;;4989981;28;20455;-66
2022/12/05 09:57:30;;;;;;;23.83;14.13;;;6.00;39.90;;;;;;4984049;28;20518;-66
2022/12/05 09:59:58;;;;;;;23.63;13.10;;;6.00;39.70;;;;;;4984530;28;20476;-66
2022/12/05 10:02:39;;;;;;;22.23;13.00;;;6.10;39.60;;;;;;4985085;28;20476;-66
2022/12/05 10:05:10;;;;;;;20.90;13.63;;;6.10;39.60;;;;;;4985750;28;20483;-66
2022/12/05 10:07:44;;;;;;;22.40;13.70;;;6.20;39.50;;;;;;4987261;28;20463;-66
2022/12/05 10:10:27;;;;;;;22.20;14.20;;;6.20;39.40;;;;;;4994990;28;20485;-66
2022/12/05 10:13:22;;;;;;;20.87;12.30;;;6.20;39.40;;;;;;4984142;28;20476;-67
2022/12/05 10:15:53;;;;;;;19.23;11.83;;;6.30;38.90;;;;;;4985853;28;20484;-68
2022/12/05 10:18:29;;;;;;;18.67;9.83;;;6.30;38.50;;;;;;4976447;28;20461;-66
2022/12/05 10:21:00;;;;;;;19.07;11.07;;;6.30;38.60;;;;;;4988413;28;20492;-66
2022/12/05 10:23:32;;;;;;;18.10;10.63;;;6.40;38.30;;;;;;4991415;28;20460;-66
2022/12/05 10:26:02;;;;;;;15.00;8.80;;;6.30;38.40;;;;;;4993668;28;20453;-66
2022/12/05 10:28:36;;;;;;;15.00;8.30;;;6.30;38.90;;;;;;4989861;28;20457;-66
2022/12/05 10:31:08;;;;;;;15.80;8.70;;;6.40;37.90;;;;;;4980939;28;20480;-66
2022/12/05 10:33:40;;;;;;;13.47;7.93;;;6.30;38.20;;;;;;4985558;28;20840;-66
2022/12/05 10:36:11;;;;;;;13.80;7.90;;;6.40;37.70;;;;;;4988227;28;21015;-67
2022/12/05 10:38:38;;;;;;;14.30;8.43;;;6.40;37.30;;;;;;4989552;28;20501;-67
2022/12/05 10:41:07;;;;;;;15.60;7.87;;;6.40;37.00;;;;;;4989118;28;20476;-67
2022/12/05 10:43:39;;;;;;;13.17;6.53;;;6.40;37.10;;;;;;4993714;28;20471;-66
2022/12/05 10:46:06;;;;;;;11.73;6.13;;;6.40;36.80;;;;;;4986717;28;20449;-66
2022/12/05 10:48:36;;;;;;;11.73;6.83;;;6.40;36.60;;;;;;4987435;28;20460;-66
2022/12/05 10:51:04;;;;;;;12.70;5.50;;;6.40;36.90;;;;;;4986227;28;20488;-65
2022/12/05 10:53:40;;;;;;;10.73;6.30;;;6.40;36.00;;;;;;4990116;28;20461;-66
2022/12/05 10:56:39;;;;;;;12.93;5.60;;;6.40;36.30;;;;;;4987696;28;20484;-69
2022/12/05 10:59:08;;;;;;;11.30;5.70;;;6.40;36.10;;;;;;4990275;28;20459;-66
2022/12/05 11:01:36;;;;;;;8.10;4.33;;;6.40;36.10;;;;;;4987945;28;21028;-66
2022/12/05 11:04:09;;;;;;;9.70;5.47;;;6.40;36.20;;;;;;4986629;28;20456;-66
2022/12/05 11:06:36;;;;;;;9.30;4.90;;;6.40;36.20;;;;;;4986632;28;20457;-67
2022/12/05 11:09:05;;;;;;;9.03;5.03;;;6.50;36.20;;;;;;4976242;28;20840;-65
2022/12/05 11:11:34;;;;;;;10.03;4.53;;;6.50;36.40;;;;;;4978616;28;20490;-68
2022/12/05 11:14:02;;;;;;;7.30;4.10;;;6.60;36.10;;;;;;4988273;28;20463;-65
2022/12/05 11:16:33;;;;;;;7.90;4.60;;;6.60;35.80;;;;;;4980762;28;20479;-66
2022/12/05 11:19:22;;;;;;;8.80;4.20;;;6.60;35.80;;;;;;4982750;28;21000;-66
2022/12/05 11:21:50;;;;;;;8.60;5.00;;;6.70;35.60;;;;;;4980761;28;20960;-67
2022/12/05 11:24:22;;;;;;;9.93;4.87;;;6.60;35.60;;;;;;4982659;28;20460;-66
2022/12/05 11:26:49;;;;;;;17.63;11.30;;;6.70;36.00;;;;;;4978504;28;20454;-67
2022/12/05 11:29:30;;;;;;;49.67;30.10;;;6.70;36.10;;;;;;4984918;28;20956;-67
2022/12/05 11:31:58;;;;;;;11.70;7.77;;;6.80;36.10;;;;;;4985978;28;20475;-66
2022/12/05 11:34:29;;;;;;;7.00;4.50;;;6.80;35.60;;;;;;4987403;28;20457;-66
2022/12/05 11:37:01;;;;;;;8.87;4.90;;;6.80;35.50;;;;;;4980159;28;20984;-66
2022/12/05 11:39:28;;;;;;;7.43;4.37;;;6.80;35.60;;;;;;4980865;28;20461;-66
2022/12/05 11:42:13;;;;;;;8.27;4.87;;;6.80;35.40;;;;;;4977318;28;20550;-70
2022/12/05 11:45:00;;;;;;;8.00;4.90;;;6.80;35.50;;;;;;4981418;28;20483;-66
2022/12/05 11:47:44;;;;;;;9.03;4.50;;;6.80;35.90;;;;;;4980159;28;20460;-67
2022/12/05 11:50:33;;;;;;;7.17;4.00;;;6.80;35.50;;;;;;4984104;28;20885;-67
2022/12/05 11:53:19;;;;;;;6.30;3.27;;;6.80;35.80;;;;;;4986859;28;20833;-66
2022/12/05 11:55:52;;;;;;;7.03;3.20;;;6.80;35.60;;;;;;4978285;28;20490;-67
2022/12/05 11:58:47;;;;;;;6.60;3.40;;;6.80;35.80;;;;;;4981362;28;20492;-66
2022/12/05 12:01:23;;;;;;;7.07;3.27;;;6.80;36.00;;;;;;4985382;28;20850;-66
2022/12/05 12:04:21;;;;;;;7.80;3.53;;;6.80;35.80;;;;;;4982971;28;21066;-67
2022/12/05 12:07:02;;;;;;;8.27;4.67;;;6.70;36.30;;;;;;4985796;28;20448;-65
2022/12/05 12:09:46;;;;;;;7.87;4.40;;;6.70;36.20;;;;;;4976865;28;20466;-68
2022/12/05 12:12:23;;;;;;;6.83;3.00;;;6.70;36.10;;;;;;4983867;28;20469;-66
2022/12/05 12:14:59;;;;;;;7.20;3.47;;;6.70;36.10;;;;;;4986119;28;20484;-66
2022/12/05 12:17:34;;;;;;;7.03;3.60;;;6.70;36.10;;;;;;4979966;28;20481;-66
2022/12/05 12:22:45;;;;;;;7.07;3.73;;;6.70;35.90;;;;;;4961239;28;20466;-74
2022/12/05 12:25:23;;;;;;;6.40;3.30;;;6.70;36.10;;;;;;4965218;28;20533;-74
2022/12/05 12:28:04;;;;;;;7.10;3.80;;;6.70;35.80;;;;;;4961602;28;20465;-74
2022/12/05 12:30:45;;;;;;;7.50;4.10;;;6.70;35.90;;;;;;4966979;28;20477;-74
2022/12/05 12:33:15;;;;;;;8.00;3.70;;;6.70;35.80;;;;;;4964147;28;20484;-74
2022/12/05 12:35:47;;;;;;;7.30;3.97;;;6.70;36.20;;;;;;4966070;28;20462;-74
2022/12/05 12:38:48;;;;;;;8.77;4.93;;;6.80;36.30;;;;;;4966977;28;20474;-75
2022/12/05 12:41:30;;;;;;;8.90;4.60;;;6.90;35.90;;;;;;4954232;28;20485;-74
2022/12/05 12:44:12;;;;;;;9.70;6.37;;;7.10;35.30;;;;;;4965577;28;20834;-74
2022/12/05 12:46:48;;;;;;;9.10;4.80;;;7.10;35.20;;;;;;4967340;28;20458;-74
2022/12/05 12:49:32;;;;;;;8.10;4.87;;;7.10;34.70;;;;;;4960620;28;21164;-74
2022/12/05 12:52:03;;;;;;;10.87;5.37;;;7.10;34.70;;;;;;4962969;28;20497;-75
2022/12/05 12:54:48;;;;;;;9.40;4.60;;;7.10;35.00;;;;;;4967471;28;20464;-74
2022/12/05 12:57:22;;;;;;;9.20;4.83;;;7.10;34.70;;;;;;4966558;28;20564;-74
2022/12/05 13:00:00;;;;;;;12.27;5.53;;;7.10;34.80;;;;;;4967813;28;20465;-74
2022/12/05 13:02:33;;;;;;;11.63;6.57;;;7.10;34.90;;;;;;4960420;28;20481;-74
2022/12/05 13:05:06;;;;;;;11.83;6.30;;;7.00;34.90;;;;;;4968191;28;21092;-74
2022/12/05 13:07:38;;;;;;;9.30;5.63;;;7.00;35.10;;;;;;4965750;28;20837;-74